createdAt,value
2018-12-30T00:02:08.526Z,10.72
2018-12-30T00:04:25.115Z,7.87
2018-12-30T00:06:41.180Z,12.37
2018-12-30T00:08:57.985Z,16.17
2018-12-30T00:11:13.840Z,7.60
2018-12-30T00:13:30.592Z,14.50
2018-12-30T00:15:46.163Z,10.57
2018-12-30T00:18:02.809Z,11.40
2018-12-30T00:20:19.154Z,6.33
2018-12-30T00:22:35.135Z,3.58
2018-12-30T00:24:50.815Z,6.73
2018-12-30T00:27:07.111Z,5.53
2018-12-30T00:29:23.739Z,7.60
2018-12-30T00:31:40.403Z,5.28
2018-12-30T00:33:56.835Z,6.17
2018-12-30T00:36:12.928Z,15.13
2018-12-30T00:38:28.686Z,10.77
2018-12-30T00:40:44.724Z,6.33
2018-12-30T00:43:01.687Z,8.53
2018-12-30T00:45:18.219Z,9.08
2018-12-30T00:47:34.510Z,6.90
2018-12-30T00:49:50.721Z,8.30
2018-12-30T00:52:06.633Z,9.10
2018-12-30T00:54:23.060Z,4.70
2018-12-30T00:56:40.152Z,26.33
2018-12-30T00:58:56.236Z,6.20
2018-12-30T01:01:12.737Z,7.30
2018-12-30T01:03:29.712Z,7.35
2018-12-30T01:05:45.505Z,9.43
2018-12-30T01:08:02.080Z,4.90
2018-12-30T01:10:18.403Z,5.03
2018-12-30T01:12:35.083Z,4.12
2018-12-30T01:14:51.175Z,2.90
2018-12-30T01:17:06.903Z,6.00
2018-12-30T01:19:23.412Z,6.10
2018-12-30T01:21:40.365Z,6.03
2018-12-30T01:23:56.303Z,5.40
2018-12-30T01:26:12.614Z,6.30
2018-12-30T01:28:29.330Z,7.03
2018-12-30T01:30:45.907Z,8.93
2018-12-30T01:33:02.841Z,5.63
2018-12-30T01:35:18.720Z,5.30
2018-12-30T01:37:35.412Z,3.90
2018-12-30T01:39:51.383Z,4.90
2018-12-30T01:42:07.827Z,4.10
2018-12-30T01:44:24.803Z,3.83
2018-12-30T01:46:40.923Z,2.53
2018-12-30T01:48:56.702Z,2.10
2018-12-30T01:51:13.667Z,2.45
2018-12-30T01:53:30.031Z,3.40
2018-12-30T01:55:46.035Z,4.77
2018-12-30T01:58:01.992Z,3.22
2018-12-30T02:00:18.677Z,3.52
2018-12-30T02:02:34.740Z,1.77
2018-12-30T02:04:50.727Z,3.10
2018-12-30T02:07:06.811Z,3.33
2018-12-30T02:09:23.182Z,1.80
2018-12-30T02:11:39.371Z,2.80
2018-12-30T02:13:55.475Z,6.10
2018-12-30T02:16:11.675Z,4.43
2018-12-30T02:18:27.744Z,5.93
2018-12-30T02:20:44.210Z,3.47
2018-12-30T02:23:00.663Z,5.15
2018-12-30T02:25:16.396Z,4.80
2018-12-30T02:27:33.335Z,3.70
2018-12-30T02:29:49.811Z,4.30
2018-12-30T02:32:05.911Z,1.95
2018-12-30T02:34:22.109Z,2.17
2018-12-30T02:36:38.695Z,2.10
2018-12-30T02:38:54.515Z,1.87
2018-12-30T02:41:10.468Z,3.20
2018-12-30T02:43:27.299Z,6.13
2018-12-30T02:45:43.507Z,4.40
2018-12-30T02:48:00.503Z,6.90
2018-12-30T02:50:16.583Z,7.10
2018-12-30T02:52:32.413Z,4.60
2018-12-30T02:54:48.550Z,4.33
2018-12-30T02:57:04.646Z,4.90
2018-12-30T02:59:20.728Z,4.83
2018-12-30T03:01:37.404Z,2.50
2018-12-30T03:03:53.288Z,5.40
2018-12-30T03:06:10.128Z,5.70
2018-12-30T03:08:26.522Z,3.90
2018-12-30T03:10:43.617Z,8.90
2018-12-30T03:13:00.228Z,5.87
2018-12-30T03:15:16.249Z,7.63
2018-12-30T03:17:33.218Z,5.75
2018-12-30T03:19:48.976Z,6.92
2018-12-30T03:22:04.907Z,7.60
2018-12-30T03:24:20.966Z,7.90
2018-12-30T03:26:36.578Z,5.50
2018-12-30T03:28:52.981Z,3.43
2018-12-30T03:31:09.168Z,5.92
2018-12-30T03:33:25.319Z,4.67
2018-12-30T03:35:41.967Z,5.47
2018-12-30T03:37:58.684Z,8.50
2018-12-30T03:40:15.299Z,9.57
2018-12-30T03:42:31.727Z,5.12
2018-12-30T03:44:47.738Z,8.70
2018-12-30T03:47:03.807Z,8.10
2018-12-30T03:49:20.601Z,8.03
2018-12-30T03:51:36.696Z,4.37
2018-12-30T03:53:51.668Z,7.07
2018-12-30T03:58:44.303Z,12.60
2018-12-30T04:01:07.754Z,12.60
2018-12-30T04:03:31.291Z,6.83
2018-12-30T04:05:54.888Z,13.47
2018-12-30T04:08:18.643Z,11.67
2018-12-30T04:10:42.143Z,14.63
2018-12-30T04:13:05.727Z,14.50
2018-12-30T04:15:29.380Z,22.90
2018-12-30T04:17:53.248Z,19.60
2018-12-30T04:20:17.326Z,12.43
2018-12-30T04:22:40.752Z,15.83
2018-12-30T04:25:04.314Z,14.43
2018-12-30T04:30:12.131Z,19.93
2018-12-30T04:32:35.560Z,22.07
2018-12-30T04:35:00.561Z,16.73
2018-12-30T04:39:53.307Z,17.37
2018-12-30T04:42:16.784Z,15.60
2018-12-30T04:44:33.480Z,14.37
2018-12-30T04:46:49.553Z,20.53
2018-12-30T04:49:05.807Z,11.53
2018-12-30T04:51:22.343Z,15.10
2018-12-30T04:53:38.561Z,11.60
2018-12-30T04:55:55.002Z,13.60
2018-12-30T04:58:11.135Z,13.87
2018-12-30T05:00:27.029Z,14.80
2018-12-30T05:05:01.551Z,10.70
2018-12-30T05:07:18.316Z,12.47
2018-12-30T05:09:34.107Z,9.30
2018-12-30T05:11:50.339Z,9.97
2018-12-30T05:14:06.509Z,16.87
2018-12-30T05:16:22.909Z,6.27
2018-12-30T05:18:38.795Z,10.27
2018-12-30T05:20:54.370Z,12.20
2018-12-30T05:23:10.219Z,10.20
2018-12-30T05:25:26.355Z,10.13
2018-12-30T05:27:42.010Z,12.73
2018-12-30T05:29:58.173Z,12.10
2018-12-30T05:32:14.313Z,7.80
2018-12-30T05:34:31.075Z,12.28
2018-12-30T05:36:47.004Z,10.13
2018-12-30T05:39:04.583Z,9.30
2018-12-30T05:41:20.737Z,12.20
2018-12-30T05:43:37.360Z,7.05
2018-12-30T05:45:53.042Z,10.20
2018-12-30T05:48:08.809Z,5.77
2018-12-30T05:50:25.147Z,15.28
2018-12-30T05:52:41.987Z,8.10
2018-12-30T05:54:58.730Z,9.37
2018-12-30T05:57:15.096Z,8.63
2018-12-30T05:59:30.645Z,6.70
2018-12-30T06:01:46.404Z,5.47
2018-12-30T06:04:02.318Z,7.77
2018-12-30T06:06:18.256Z,9.33
2018-12-30T06:08:35.039Z,11.00
2018-12-30T06:10:51.455Z,10.08
2018-12-30T06:13:07.979Z,11.53
2018-12-30T06:15:24.691Z,11.17
2018-12-30T06:17:41.572Z,8.53
2018-12-30T06:19:57.568Z,13.10
2018-12-30T06:22:14.235Z,18.10
2018-12-30T06:24:30.117Z,15.60
2018-12-30T06:26:46.845Z,8.60
2018-12-30T06:29:02.586Z,7.67
2018-12-30T06:31:18.408Z,11.70
2018-12-30T06:33:34.106Z,11.50
2018-12-30T06:35:50.608Z,10.43
2018-12-30T06:38:06.944Z,13.18
2018-12-30T06:40:23.299Z,10.50
2018-12-30T06:42:39.807Z,11.43
2018-12-30T06:44:56.625Z,11.00
2018-12-30T06:47:12.256Z,8.80
2018-12-30T06:49:28.897Z,18.40
2018-12-30T06:51:33.452Z,14.33
2018-12-30T06:53:37.630Z,10.58
2018-12-30T06:55:42.155Z,6.37
2018-12-30T06:57:47.116Z,7.23
2018-12-30T06:59:51.467Z,6.20
2018-12-30T07:01:55.539Z,7.43
2018-12-30T07:03:59.683Z,7.47
2018-12-30T07:06:05.013Z,9.83
2018-12-30T07:08:10.126Z,4.83
2018-12-30T07:10:14.058Z,9.33
2018-12-30T07:12:18.705Z,8.30
2018-12-30T07:14:22.931Z,9.50
2018-12-30T07:16:28.387Z,8.53
2018-12-30T07:18:32.710Z,9.80
2018-12-30T07:20:37.155Z,5.43
2018-12-30T07:22:41.743Z,5.47
2018-12-30T07:24:45.823Z,7.00
2018-12-30T07:26:49.933Z,4.40
2018-12-30T07:28:54.603Z,5.70
2018-12-30T07:30:59.190Z,7.63
2018-12-30T07:33:04.419Z,10.30
2018-12-30T07:35:09.326Z,6.57
2018-12-30T07:37:14.126Z,7.30
2018-12-30T07:39:18.751Z,6.97
2018-12-30T07:41:22.950Z,9.07
2018-12-30T07:43:27.141Z,10.63
2018-12-30T07:45:31.290Z,5.22
2018-12-30T07:47:36.245Z,8.58
2018-12-30T07:49:40.375Z,7.07
2018-12-30T07:51:44.253Z,5.23
2018-12-30T07:53:48.800Z,7.53
2018-12-30T07:55:53.671Z,5.30
2018-12-30T07:57:57.555Z,6.67
2018-12-30T08:00:02.155Z,10.33
2018-12-30T08:02:06.756Z,11.18
2018-12-30T08:04:11.342Z,8.00
2018-12-30T08:06:15.614Z,12.30
2018-12-30T08:08:20.886Z,11.03
2018-12-30T08:10:25.374Z,13.73
2018-12-30T08:12:29.329Z,7.13
2018-12-30T08:14:33.773Z,12.27
2018-12-30T08:16:38.867Z,8.90
2018-12-30T08:18:43.820Z,18.30
2018-12-30T08:20:48.226Z,13.07
2018-12-30T08:22:52.718Z,11.60
2018-12-30T08:24:56.863Z,13.73
2018-12-30T08:27:01.968Z,13.30
2018-12-30T08:29:06.571Z,10.37
2018-12-30T08:31:11.394Z,8.95
2018-12-30T08:33:16.117Z,7.70
2018-12-30T08:35:21.168Z,11.43
2018-12-30T08:37:25.770Z,10.93
2018-12-30T08:39:30.314Z,10.00
2018-12-30T08:41:35.287Z,9.90
2018-12-30T08:43:39.759Z,10.30
2018-12-30T08:45:44.427Z,11.53
2018-12-30T08:47:49.703Z,7.85
2018-12-30T08:49:54.171Z,8.83
2018-12-30T08:51:58.791Z,11.40
2018-12-30T08:54:03.579Z,13.50
2018-12-30T08:56:07.900Z,8.07
2018-12-30T08:58:13.131Z,10.18
2018-12-30T09:00:17.619Z,13.40
2018-12-30T09:02:22.579Z,14.70
2018-12-30T09:04:26.792Z,7.33
2018-12-30T09:06:31.504Z,11.40
2018-12-30T09:08:36.192Z,14.55
2018-12-30T09:10:40.565Z,8.93
2018-12-30T09:12:44.841Z,14.10
2018-12-30T09:14:49.115Z,10.98
2018-12-30T09:16:53.623Z,14.47
2018-12-30T09:18:58.241Z,13.03
2018-12-30T09:21:02.905Z,10.03
2018-12-30T09:23:07.470Z,9.00
2018-12-30T09:25:12.214Z,9.43
2018-12-30T09:27:18.899Z,13.13
2018-12-30T09:29:23.187Z,15.10
2018-12-30T09:31:27.773Z,11.87
2018-12-30T09:33:32.151Z,6.87
2018-12-30T09:35:37.150Z,9.93
2018-12-30T09:37:41.580Z,11.30
2018-12-30T09:39:46.023Z,13.50
2018-12-30T09:41:50.504Z,14.58
2018-12-30T09:43:58.607Z,12.90
2018-12-30T09:46:22.667Z,14.27
2018-12-30T09:48:33.585Z,11.10
2018-12-30T09:50:33.279Z,8.83
2018-12-30T09:52:37.681Z,11.10
2018-12-30T09:54:41.891Z,7.45
2018-12-30T09:56:46.751Z,12.53
2018-12-30T09:58:50.642Z,12.80
2018-12-30T10:00:55.498Z,11.30
2018-12-30T10:03:00.260Z,12.93
2018-12-30T10:05:05.372Z,9.63
2018-12-30T10:07:10.088Z,6.45
2018-12-30T10:09:14.695Z,11.87
2018-12-30T10:11:19.800Z,14.63
2018-12-30T10:13:24.472Z,8.90
2018-12-30T10:15:29.174Z,15.90
2018-12-30T10:17:34.471Z,11.67
2018-12-30T10:19:38.606Z,10.53
2018-12-30T10:21:42.983Z,11.70
2018-12-30T10:23:52.886Z,14.07
2018-12-30T10:25:53.665Z,15.47
2018-12-30T10:27:58.419Z,13.03
2018-12-30T10:30:02.635Z,11.40
2018-12-30T10:32:07.381Z,14.25
2018-12-30T10:34:11.647Z,8.87
2018-12-30T10:36:16.182Z,10.43
2018-12-30T10:38:20.704Z,11.40
2018-12-30T10:40:25.812Z,15.97
2018-12-30T10:42:30.536Z,13.60
2018-12-30T10:44:35.619Z,8.83
2018-12-30T10:46:40.619Z,10.77
2018-12-30T10:48:45.701Z,12.73
2018-12-30T10:50:50.865Z,8.23
2018-12-30T10:52:55.649Z,6.00
2018-12-30T10:55:00.389Z,8.87
2018-12-30T10:57:06.058Z,10.30
2018-12-30T10:59:10.177Z,10.37
2018-12-30T11:01:14.645Z,11.43
2018-12-30T11:03:19.255Z,8.30
2018-12-30T11:05:23.523Z,11.10
2018-12-30T11:07:28.216Z,9.27
2018-12-30T11:09:32.400Z,18.17
2018-12-30T11:11:36.919Z,17.73
2018-12-30T11:13:41.113Z,12.53
2018-12-30T11:15:45.118Z,21.20
2018-12-30T11:17:49.674Z,16.00
2018-12-30T11:19:53.821Z,16.27
2018-12-30T11:21:58.760Z,10.10
2018-12-30T11:24:08.473Z,15.03
2018-12-30T11:26:10.068Z,12.23
2018-12-30T11:28:14.370Z,9.70
2018-12-30T11:30:19.454Z,9.53
2018-12-30T11:32:24.222Z,15.70
2018-12-30T11:34:29.431Z,9.75
2018-12-30T11:36:34.345Z,12.70
2018-12-30T11:38:38.435Z,9.17
2018-12-30T11:40:43.079Z,19.07
2018-12-30T11:42:47.779Z,16.33
2018-12-30T11:44:52.017Z,10.58
2018-12-30T11:46:56.220Z,14.98
2018-12-30T11:49:00.447Z,12.90
2018-12-30T11:51:05.031Z,16.32
2018-12-30T11:53:09.903Z,19.03
2018-12-30T11:55:14.030Z,10.53
2018-12-30T11:57:18.857Z,9.80
2018-12-30T11:59:23.361Z,12.33
2018-12-30T12:01:28.622Z,13.57
2018-12-30T12:03:33.250Z,11.13
2018-12-30T12:05:38.427Z,13.70
2018-12-30T12:07:43.459Z,10.70
2018-12-30T12:09:48.760Z,27.03
2018-12-30T12:11:53.239Z,6.97
2018-12-30T12:13:57.842Z,15.53
2018-12-30T12:16:02.083Z,14.30
2018-12-30T12:18:07.485Z,13.83
2018-12-30T12:20:12.019Z,16.80
2018-12-30T12:22:16.024Z,10.90
2018-12-30T12:24:24.305Z,18.80
2018-12-30T12:26:27.136Z,15.23
2018-12-30T12:28:31.372Z,13.67
2018-12-30T12:30:36.631Z,14.83
2018-12-30T12:32:40.864Z,12.37
2018-12-30T12:34:45.603Z,13.78
2018-12-30T12:36:50.707Z,8.83
2018-12-30T12:38:55.350Z,16.50
2018-12-30T12:40:59.965Z,16.67
2018-12-30T12:43:04.119Z,12.47
2018-12-30T12:45:08.700Z,14.10
2018-12-30T12:47:15.669Z,9.18
2018-12-30T12:49:20.276Z,12.40
2018-12-30T12:51:24.645Z,13.20
2018-12-30T12:53:28.935Z,11.73
2018-12-30T12:55:33.092Z,10.80
2018-12-30T12:57:57.139Z,6.83
2018-12-30T13:00:20.387Z,6.77
2018-12-30T13:10:28.139Z,11.13
2018-12-30T13:12:51.466Z,14.53
2018-12-30T13:15:15.311Z,10.78
2018-12-30T13:17:38.831Z,11.20
2018-12-30T13:20:02.224Z,9.53
2018-12-30T13:22:25.547Z,8.60
2018-12-30T13:24:49.366Z,10.00
2018-12-30T13:27:13.191Z,14.00
2018-12-30T13:37:17.621Z,9.43
2018-12-30T13:39:33.776Z,8.23
2018-12-30T13:41:50.196Z,9.57
2018-12-30T13:44:06.107Z,9.50
2018-12-30T13:46:22.539Z,10.37
2018-12-30T13:48:38.834Z,14.27
2018-12-30T13:50:54.732Z,15.67
2018-12-30T13:53:11.164Z,11.38
2018-12-30T13:55:27.560Z,5.90
2018-12-30T13:57:43.189Z,13.23
2018-12-30T14:00:00.377Z,15.90
2018-12-30T14:02:16.952Z,8.43
2018-12-30T14:04:33.368Z,10.40
2018-12-30T14:06:48.839Z,9.87
2018-12-30T14:09:06.441Z,10.67
2018-12-30T14:11:24.675Z,8.80
2018-12-30T14:13:39.184Z,10.70
2018-12-30T14:18:31.707Z,6.90
2018-12-30T14:20:48.104Z,8.93
2018-12-30T14:23:05.036Z,8.63
2018-12-30T14:25:20.824Z,12.87
2018-12-30T14:27:37.315Z,12.95
2018-12-30T14:29:53.699Z,13.20
2018-12-30T14:32:09.064Z,13.13
2018-12-30T14:34:25.655Z,9.70
2018-12-30T14:36:41.719Z,13.13
2018-12-30T14:38:56.268Z,10.07
2018-12-30T14:41:19.367Z,9.23
2018-12-30T14:44:02.084Z,12.60
2018-12-30T14:46:33.616Z,16.90
2018-12-30T14:59:13.073Z,14.73
2018-12-30T15:01:36.379Z,10.53
2018-12-30T15:03:59.657Z,7.10
2018-12-30T15:06:22.718Z,10.73
2018-12-30T15:09:05.648Z,9.03
2018-12-30T15:11:29.701Z,10.77
2018-12-30T15:13:53.039Z,16.60
2018-12-30T15:16:16.642Z,16.40
2018-12-30T15:18:40.494Z,8.90
2018-12-30T15:23:35.716Z,19.63
2018-12-30T15:25:59.222Z,10.37
2018-12-30T15:30:56.212Z,15.33
2018-12-30T15:33:19.837Z,14.00
2018-12-30T15:38:27.561Z,14.30
2018-12-30T15:40:43.371Z,11.20
2018-12-30T15:42:59.404Z,14.70
2018-12-30T15:45:15.795Z,12.20
2018-12-30T15:47:31.551Z,16.83
2018-12-30T15:49:48.028Z,11.40
2018-12-30T15:52:04.337Z,13.70
2018-12-30T15:54:20.885Z,11.83
2018-12-30T15:56:37.316Z,16.50
2018-12-30T15:58:53.367Z,22.87
2018-12-30T16:01:09.711Z,13.50
2018-12-30T16:03:24.746Z,19.50
2018-12-30T16:05:48.267Z,18.17
2018-12-30T16:10:42.819Z,17.50
2018-12-30T16:13:06.154Z,20.27
2018-12-30T16:15:29.726Z,22.13
2018-12-30T16:17:53.091Z,14.68
2018-12-30T16:20:16.936Z,16.62
2018-12-30T16:22:33.062Z,23.10
2018-12-30T16:24:49.499Z,22.52
2018-12-30T16:27:06.354Z,24.15
2018-12-30T16:29:23.302Z,18.27
2018-12-30T16:31:39.264Z,26.63
2018-12-30T16:33:54.083Z,14.80
2018-12-30T16:36:18.127Z,12.60
2018-12-30T16:38:34.567Z,15.73
2018-12-30T16:40:50.433Z,18.80
2018-12-30T16:43:06.787Z,17.20
2018-12-30T16:45:22.344Z,24.80
2018-12-30T16:47:42.071Z,15.75
2018-12-30T16:49:57.126Z,20.33
2018-12-30T16:52:13.806Z,21.07
2018-12-30T16:54:30.050Z,11.65
2018-12-30T16:56:46.164Z,19.62
2018-12-30T16:59:03.278Z,15.75
2018-12-30T17:01:18.995Z,20.32
2018-12-30T17:03:35.283Z,18.57
2018-12-30T17:05:51.938Z,15.60
2018-12-30T17:08:07.779Z,18.97
2018-12-30T17:10:24.472Z,17.67
2018-12-30T17:12:40.429Z,20.77
2018-12-30T17:14:57.134Z,21.60
2018-12-30T17:17:13.425Z,19.85
2018-12-30T17:19:29.884Z,18.30
2018-12-30T17:21:46.087Z,18.20
2018-12-30T17:24:02.179Z,19.60
2018-12-30T17:26:18.159Z,16.73
2018-12-30T17:28:34.343Z,13.40
2018-12-30T17:30:50.336Z,20.00
2018-12-30T17:33:06.646Z,14.77
2018-12-30T17:35:22.705Z,24.77
2018-12-30T17:37:38.433Z,21.27
2018-12-30T17:39:54.391Z,21.20
2018-12-30T17:42:10.000Z,17.50
2018-12-30T17:44:25.907Z,18.83
2018-12-30T17:46:41.724Z,24.57
2018-12-30T17:48:58.708Z,25.57
2018-12-30T17:51:14.900Z,21.62
2018-12-30T17:53:31.588Z,25.60
2018-12-30T17:55:50.858Z,26.87
2018-12-30T17:58:06.279Z,22.60
2018-12-30T18:00:22.318Z,24.33
2018-12-30T18:02:39.326Z,24.65
2018-12-30T18:04:55.549Z,15.15
2018-12-30T18:07:11.656Z,16.45
2018-12-30T18:09:28.314Z,27.65
2018-12-30T18:11:44.168Z,16.83
2018-12-30T18:13:58.646Z,25.60
2018-12-30T18:16:23.042Z,19.00
2018-12-30T18:18:46.706Z,20.00
2018-12-30T18:21:10.206Z,24.93
2018-12-30T18:23:33.433Z,14.93
2018-12-30T18:25:58.785Z,24.10
2018-12-30T18:28:21.487Z,19.80
2018-12-30T18:33:06.523Z,25.97
2018-12-30T18:35:23.220Z,20.70
2018-12-30T18:37:40.392Z,20.60
2018-12-30T18:39:56.575Z,20.48
2018-12-30T18:42:12.962Z,17.87
2018-12-30T18:44:29.450Z,17.93
2018-12-30T18:46:45.664Z,21.50
2018-12-30T18:49:01.359Z,23.30
2018-12-30T18:51:18.689Z,26.03
2018-12-30T18:53:34.870Z,30.10
2018-12-30T18:55:50.772Z,21.83
2018-12-30T18:58:06.894Z,26.50
2018-12-30T19:00:22.746Z,25.07
2018-12-30T19:02:38.903Z,28.15
2018-12-30T19:04:54.563Z,21.43
2018-12-30T19:07:10.806Z,23.80
2018-12-30T19:09:26.842Z,28.80
2018-12-30T19:11:43.545Z,21.23
2018-12-30T19:13:59.670Z,20.20
2018-12-30T19:16:14.151Z,23.67
2018-12-30T19:21:06.803Z,22.60
2018-12-30T19:23:31.176Z,23.10
2018-12-30T19:28:23.629Z,17.53
2018-12-30T19:30:46.876Z,15.70
2018-12-30T19:35:40.081Z,22.90
2018-12-30T19:38:03.296Z,21.47
2018-12-30T19:40:26.366Z,23.37
2018-12-30T19:42:42.700Z,17.27
2018-12-30T19:44:59.340Z,20.27
2018-12-30T19:47:15.339Z,32.73
2018-12-30T19:49:31.765Z,13.10
2018-12-30T19:51:48.487Z,19.00
2018-12-30T19:54:04.296Z,19.73
2018-12-30T19:56:21.983Z,23.00
2018-12-30T19:58:38.636Z,25.63
2018-12-30T20:00:54.672Z,25.92
2018-12-30T20:03:10.676Z,25.87
2018-12-30T20:05:26.703Z,24.47
2018-12-30T20:07:43.160Z,14.57
2018-12-30T20:09:59.163Z,23.25
2018-12-30T20:12:15.024Z,17.97
2018-12-30T20:14:31.923Z,15.57
2018-12-30T20:16:48.304Z,19.50
2018-12-30T20:19:04.863Z,16.13
2018-12-30T20:21:22.443Z,17.23
2018-12-30T20:23:39.088Z,22.53
2018-12-30T20:25:55.080Z,20.60
2018-12-30T20:28:11.001Z,20.37
2018-12-30T20:30:26.848Z,17.77
2018-12-30T20:32:42.907Z,11.90
2018-12-30T20:34:58.728Z,16.73
2018-12-30T20:37:14.826Z,21.83
2018-12-30T20:39:31.368Z,19.73
2018-12-30T20:41:47.251Z,16.60
2018-12-30T20:44:03.748Z,19.98
2018-12-30T20:46:19.783Z,20.63
2018-12-30T20:48:36.316Z,19.60
2018-12-30T20:50:52.824Z,17.95
2018-12-30T20:53:09.956Z,18.77
2018-12-30T20:55:26.182Z,24.23
2018-12-30T20:57:42.191Z,18.93
2018-12-30T20:59:58.261Z,26.70
2018-12-30T21:02:14.429Z,20.47
2018-12-30T21:04:30.943Z,30.00
2018-12-30T21:06:46.386Z,19.90
2018-12-30T21:09:02.512Z,18.95
2018-12-30T21:11:19.139Z,21.60
2018-12-30T21:13:36.127Z,21.30
2018-12-30T21:15:52.802Z,24.83
2018-12-30T21:18:10.294Z,11.95
2018-12-30T21:20:26.983Z,12.10
2018-12-30T21:22:43.120Z,11.28
2018-12-30T21:25:00.240Z,15.58
2018-12-30T21:27:16.212Z,17.55
2018-12-30T21:29:31.880Z,22.70
2018-12-30T21:31:48.864Z,26.60
2018-12-30T21:34:05.344Z,16.13
2018-12-30T21:36:21.700Z,20.70
2018-12-30T21:38:37.244Z,19.13
2018-12-30T21:40:53.423Z,18.55
2018-12-30T21:43:09.564Z,21.67
2018-12-30T21:45:26.227Z,22.47
2018-12-30T21:47:41.648Z,21.13
2018-12-30T21:49:57.672Z,19.53
2018-12-30T21:52:13.891Z,21.52
2018-12-30T21:54:30.190Z,22.53
2018-12-30T21:56:54.577Z,20.70
2018-12-30T21:59:04.801Z,27.20
2018-12-30T22:01:21.710Z,18.50
2018-12-30T22:03:37.851Z,27.30
2018-12-30T22:05:53.675Z,20.30
2018-12-30T22:08:09.794Z,26.40
2018-12-30T22:10:25.588Z,21.27
2018-12-30T22:12:41.288Z,21.97
2018-12-30T22:14:57.752Z,32.33
2018-12-30T22:17:14.395Z,17.77
2018-12-30T22:19:30.244Z,24.90
2018-12-30T22:21:46.801Z,22.73
2018-12-30T22:24:02.531Z,21.83
2018-12-30T22:26:18.227Z,30.43
2018-12-30T22:28:34.381Z,26.30
2018-12-30T22:30:51.343Z,19.17
2018-12-30T22:33:07.711Z,25.97
2018-12-30T22:35:23.604Z,27.03
2018-12-30T22:37:39.922Z,27.00
2018-12-30T22:39:56.098Z,26.83
2018-12-30T22:42:12.929Z,26.97
2018-12-30T22:44:29.507Z,28.03
2018-12-30T22:46:45.543Z,26.57
2018-12-30T22:49:01.151Z,28.40
2018-12-30T22:51:17.509Z,23.17
2018-12-30T22:53:33.523Z,24.17
2018-12-30T22:55:49.448Z,23.77
2018-12-30T22:58:05.756Z,23.90
2018-12-30T23:00:41.317Z,21.87
2018-12-30T23:02:57.811Z,23.57
2018-12-30T23:05:14.264Z,27.20
2018-12-30T23:07:30.259Z,24.40
2018-12-30T23:09:46.963Z,20.50
2018-12-30T23:12:03.049Z,29.20
2018-12-30T23:14:19.109Z,22.60
2018-12-30T23:16:35.251Z,15.17
2018-12-30T23:18:51.327Z,21.37
2018-12-30T23:21:07.531Z,18.23
2018-12-30T23:23:23.812Z,19.43
2018-12-30T23:25:40.075Z,23.77
2018-12-30T23:27:56.257Z,24.50
2018-12-30T23:30:12.911Z,21.50
2018-12-30T23:32:28.591Z,19.37
2018-12-30T23:34:45.007Z,16.25
2018-12-30T23:37:01.302Z,25.90
2018-12-30T23:39:16.864Z,26.03
2018-12-30T23:41:33.435Z,22.60
2018-12-30T23:43:49.262Z,24.60
2018-12-30T23:46:05.467Z,29.23
2018-12-30T23:48:21.924Z,26.13
2018-12-30T23:50:37.713Z,21.50
2018-12-30T23:52:54.156Z,24.67
2018-12-30T23:55:10.769Z,15.83
2018-12-30T23:57:26.385Z,20.10
2018-12-30T23:59:42.097Z,21.53
